sensor_id;sensor_type;location;lat;lon;timestamp;P1;durP1;ratioP1;P2;durP2;ratioP2
71773;SDS011;59607;52.130;5.430;2022-11-15T00:01:32;25.75;;;12.57;;
71773;SDS011;59607;52.130;5.430;2022-11-15T00:04:01;26.30;;;11.90;;
71773;SDS011;59607;52.130;5.430;2022-11-15T00:06:27;27.13;;;12.17;;
71773;SDS011;59607;52.130;5.430;2022-11-15T00:08:54;27.23;;;11.52;;
71773;SDS011;59607;52.130;5.430;2022-11-15T00:11:21;26.75;;;11.85;;
71773;SDS011;59607;52.130;5.430;2022-11-15T00:13:47;24.40;;;11.32;;
71773;SDS011;59607;52.130;5.430;2022-11-15T00:16:13;22.77;;;11.70;;
71773;SDS011;59607;52.130;5.430;2022-11-15T00:18:45;28.87;;;12.93;;
71773;SDS011;59607;52.130;5.430;2022-11-15T00:21:16;28.02;;;13.13;;
71773;SDS011;59607;52.130;5.430;2022-11-15T00:23:49;31.83;;;12.65;;
71773;SDS011;59607;52.130;5.430;2022-11-15T00:26:15;32.97;;;13.23;;
71773;SDS011;59607;52.130;5.430;2022-11-15T00:28:54;34.95;;;13.40;;
71773;SDS011;59607;52.130;5.430;2022-11-15T00:31:27;33.23;;;13.63;;
71773;SDS011;59607;52.130;5.430;2022-11-15T00:33:53;33.55;;;13.07;;
71773;SDS011;59607;52.130;5.430;2022-11-15T00:36:20;31.38;;;13.93;;
71773;SDS011;59607;52.130;5.430;2022-11-15T00:38:46;36.38;;;13.70;;
71773;SDS011;59607;52.130;5.430;2022-11-15T00:41:18;31.25;;;13.70;;
71773;SDS011;59607;52.130;5.430;2022-11-15T00:43:44;34.47;;;14.17;;
71773;SDS011;59607;52.130;5.430;2022-11-15T00:46:15;32.88;;;13.80;;
71773;SDS011;59607;52.130;5.430;2022-11-15T00:48:49;35.67;;;13.80;;
71773;SDS011;59607;52.130;5.430;2022-11-15T00:51:26;37.10;;;15.20;;
71773;SDS011;59607;52.130;5.430;2022-11-15T00:53:55;35.88;;;14.43;;
71773;SDS011;59607;52.130;5.430;2022-11-15T00:56:26;38.30;;;14.40;;
71773;SDS011;59607;52.130;5.430;2022-11-15T00:58:53;46.17;;;15.35;;
71773;SDS011;59607;52.130;5.430;2022-11-15T01:01:22;32.70;;;13.90;;
71773;SDS011;59607;52.130;5.430;2022-11-15T01:03:48;41.22;;;15.63;;
71773;SDS011;59607;52.130;5.430;2022-11-15T01:06:15;46.40;;;14.25;;
71773;SDS011;59607;52.130;5.430;2022-11-15T01:08:41;41.00;;;13.53;;
71773;SDS011;59607;52.130;5.430;2022-11-15T01:11:14;33.20;;;13.48;;
71773;SDS011;59607;52.130;5.430;2022-11-15T01:13:56;36.92;;;14.55;;
71773;SDS011;59607;52.130;5.430;2022-11-15T01:16:22;37.72;;;15.30;;
71773;SDS011;59607;52.130;5.430;2022-11-15T01:18:53;36.33;;;14.30;;
71773;SDS011;59607;52.130;5.430;2022-11-15T01:21:22;35.73;;;14.03;;
71773;SDS011;59607;52.130;5.430;2022-11-15T01:23:55;35.28;;;14.35;;
71773;SDS011;59607;52.130;5.430;2022-11-15T01:26:25;35.42;;;13.90;;
71773;SDS011;59607;52.130;5.430;2022-11-15T01:28:55;39.55;;;14.20;;
71773;SDS011;59607;52.130;5.430;2022-11-15T01:31:23;33.80;;;14.13;;
71773;SDS011;59607;52.130;5.430;2022-11-15T01:33:50;31.13;;;14.23;;
71773;SDS011;59607;52.130;5.430;2022-11-15T01:36:17;27.08;;;13.05;;
71773;SDS011;59607;52.130;5.430;2022-11-15T01:38:54;30.77;;;13.43;;
71773;SDS011;59607;52.130;5.430;2022-11-15T01:41:26;30.55;;;13.60;;
71773;SDS011;59607;52.130;5.430;2022-11-15T01:47:03;31.40;;;13.13;;
71773;SDS011;59607;52.130;5.430;2022-11-15T01:49:34;26.73;;;14.05;;
71773;SDS011;59607;52.130;5.430;2022-11-15T01:52:05;32.20;;;13.95;;
71773;SDS011;59607;52.130;5.430;2022-11-15T01:54:37;27.00;;;13.23;;
71773;SDS011;59607;52.130;5.430;2022-11-15T01:57:06;28.92;;;13.35;;
71773;SDS011;59607;52.130;5.430;2022-11-15T01:59:40;31.80;;;13.27;;
71773;SDS011;59607;52.130;5.430;2022-11-15T02:02:09;31.48;;;12.85;;
71773;SDS011;59607;52.130;5.430;2022-11-15T02:04:44;30.38;;;13.23;;
71773;SDS011;59607;52.130;5.430;2022-11-15T02:07:13;34.80;;;13.88;;
71773;SDS011;59607;52.130;5.430;2022-11-15T02:09:44;33.70;;;13.00;;
71773;SDS011;59607;52.130;5.430;2022-11-15T02:12:13;30.27;;;12.83;;
71773;SDS011;59607;52.130;5.430;2022-11-15T02:14:52;33.20;;;13.50;;
71773;SDS011;59607;52.130;5.430;2022-11-15T02:23:31;31.25;;;13.77;;
71773;SDS011;59607;52.130;5.430;2022-11-15T02:29:30;30.95;;;13.63;;
71773;SDS011;59607;52.130;5.430;2022-11-15T02:35:30;26.90;;;12.45;;
71773;SDS011;59607;52.130;5.430;2022-11-15T02:38:17;22.38;;;13.50;;
71773;SDS011;59607;52.130;5.430;2022-11-15T02:41:09;25.47;;;13.07;;
71773;SDS011;59607;52.130;5.430;2022-11-15T02:44:09;29.08;;;12.95;;
71773;SDS011;59607;52.130;5.430;2022-11-15T02:46:45;23.58;;;13.60;;
71773;SDS011;59607;52.130;5.430;2022-11-15T02:49:39;21.77;;;13.40;;
71773;SDS011;59607;52.130;5.430;2022-11-15T02:52:17;29.77;;;14.00;;
71773;SDS011;59607;52.130;5.430;2022-11-15T02:54:54;32.77;;;14.27;;
71773;SDS011;59607;52.130;5.430;2022-11-15T02:57:43;26.33;;;13.13;;
71773;SDS011;59607;52.130;5.430;2022-11-15T03:00:57;24.30;;;12.85;;
71773;SDS011;59607;52.130;5.430;2022-11-15T03:03:48;22.92;;;13.20;;
71773;SDS011;59607;52.130;5.430;2022-11-15T03:06:49;26.40;;;12.85;;
71773;SDS011;59607;52.130;5.430;2022-11-15T03:09:31;29.53;;;13.23;;
71773;SDS011;59607;52.130;5.430;2022-11-15T03:15:32;22.83;;;12.85;;
71773;SDS011;59607;52.130;5.430;2022-11-15T03:18:19;24.00;;;12.50;;
71773;SDS011;59607;52.130;5.430;2022-11-15T03:20:52;22.58;;;12.50;;
71773;SDS011;59607;52.130;5.430;2022-11-15T03:23:23;17.97;;;10.83;;
71773;SDS011;59607;52.130;5.430;2022-11-15T03:25:51;21.90;;;12.95;;
71773;SDS011;59607;52.130;5.430;2022-11-15T03:31:39;23.33;;;11.88;;
71773;SDS011;59607;52.130;5.430;2022-11-15T03:37:02;22.17;;;12.37;;
71773;SDS011;59607;52.130;5.430;2022-11-15T03:39:32;19.10;;;11.18;;
71773;SDS011;59607;52.130;5.430;2022-11-15T03:44:46;18.98;;;12.02;;
71773;SDS011;59607;52.130;5.430;2022-11-15T03:50:16;23.57;;;12.13;;
71773;SDS011;59607;52.130;5.430;2022-11-15T03:52:46;19.35;;;11.13;;
71773;SDS011;59607;52.130;5.430;2022-11-15T03:55:31;23.83;;;12.52;;
71773;SDS011;59607;52.130;5.430;2022-11-15T03:58:02;26.25;;;12.15;;
71773;SDS011;59607;52.130;5.430;2022-11-15T04:00:29;24.65;;;12.95;;
71773;SDS011;59607;52.130;5.430;2022-11-15T04:02:59;16.83;;;12.47;;
71773;SDS011;59607;52.130;5.430;2022-11-15T04:05:26;21.73;;;12.00;;
71773;SDS011;59607;52.130;5.430;2022-11-15T04:07:52;21.20;;;11.95;;
71773;SDS011;59607;52.130;5.430;2022-11-15T04:10:19;22.50;;;12.75;;
71773;SDS011;59607;52.130;5.430;2022-11-15T04:12:49;27.00;;;13.02;;
71773;SDS011;59607;52.130;5.430;2022-11-15T04:15:17;26.13;;;14.17;;
71773;SDS011;59607;52.130;5.430;2022-11-15T04:17:55;20.40;;;11.95;;
71773;SDS011;59607;52.130;5.430;2022-11-15T04:20:24;21.45;;;11.70;;
71773;SDS011;59607;52.130;5.430;2022-11-15T04:23:16;23.00;;;11.27;;
71773;SDS011;59607;52.130;5.430;2022-11-15T04:26:03;22.30;;;11.55;;
71773;SDS011;59607;52.130;5.430;2022-11-15T04:28:44;17.40;;;11.87;;
71773;SDS011;59607;52.130;5.430;2022-11-15T04:31:29;22.27;;;12.65;;
71773;SDS011;59607;52.130;5.430;2022-11-15T04:33:56;18.98;;;12.32;;
71773;SDS011;59607;52.130;5.430;2022-11-15T04:36:23;20.25;;;12.20;;
71773;SDS011;59607;52.130;5.430;2022-11-15T04:39:08;20.35;;;11.70;;
71773;SDS011;59607;52.130;5.430;2022-11-15T04:41:34;18.23;;;11.20;;
71773;SDS011;59607;52.130;5.430;2022-11-15T04:44:02;19.35;;;11.88;;
71773;SDS011;59607;52.130;5.430;2022-11-15T04:46:39;19.80;;;11.93;;
71773;SDS011;59607;52.130;5.430;2022-11-15T04:49:09;23.13;;;12.23;;
71773;SDS011;59607;52.130;5.430;2022-11-15T04:51:36;18.23;;;10.73;;
71773;SDS011;59607;52.130;5.430;2022-11-15T04:54:05;21.80;;;11.37;;
71773;SDS011;59607;52.130;5.430;2022-11-15T04:56:33;18.27;;;12.10;;
71773;SDS011;59607;52.130;5.430;2022-11-15T04:59:00;23.25;;;11.52;;
71773;SDS011;59607;52.130;5.430;2022-11-15T05:01:26;20.77;;;11.95;;
71773;SDS011;59607;52.130;5.430;2022-11-15T05:03:58;17.33;;;11.63;;
71773;SDS011;59607;52.130;5.430;2022-11-15T05:06:43;15.73;;;11.50;;
71773;SDS011;59607;52.130;5.430;2022-11-15T05:09:15;23.67;;;12.82;;
71773;SDS011;59607;52.130;5.430;2022-11-15T05:11:49;16.63;;;11.07;;
71773;SDS011;59607;52.130;5.430;2022-11-15T05:14:24;17.48;;;11.23;;
71773;SDS011;59607;52.130;5.430;2022-11-15T05:16:50;17.30;;;11.05;;
71773;SDS011;59607;52.130;5.430;2022-11-15T05:19:17;16.67;;;10.80;;
71773;SDS011;59607;52.130;5.430;2022-11-15T05:21:50;13.95;;;10.50;;
71773;SDS011;59607;52.130;5.430;2022-11-15T05:24:16;19.63;;;11.88;;
71773;SDS011;59607;52.130;5.430;2022-11-15T05:26:44;18.98;;;11.15;;
71773;SDS011;59607;52.130;5.430;2022-11-15T05:29:13;18.48;;;11.70;;
71773;SDS011;59607;52.130;5.430;2022-11-15T05:31:43;18.40;;;11.97;;
71773;SDS011;59607;52.130;5.430;2022-11-15T05:34:14;21.30;;;11.70;;
71773;SDS011;59607;52.130;5.430;2022-11-15T05:36:42;21.45;;;12.00;;
71773;SDS011;59607;52.130;5.430;2022-11-15T05:39:28;19.67;;;11.18;;
71773;SDS011;59607;52.130;5.430;2022-11-15T05:44:46;13.13;;;10.70;;
71773;SDS011;59607;52.130;5.430;2022-11-15T05:47:29;16.23;;;11.70;;
71773;SDS011;59607;52.130;5.430;2022-11-15T05:50:12;14.90;;;10.68;;
71773;SDS011;59607;52.130;5.430;2022-11-15T05:52:42;18.95;;;12.30;;
71773;SDS011;59607;52.130;5.430;2022-11-15T05:55:11;15.82;;;11.85;;
71773;SDS011;59607;52.130;5.430;2022-11-15T05:57:41;20.00;;;12.03;;
71773;SDS011;59607;52.130;5.430;2022-11-15T06:00:12;19.25;;;11.25;;
71773;SDS011;59607;52.130;5.430;2022-11-15T06:02:38;15.25;;;10.68;;
71773;SDS011;59607;52.130;5.430;2022-11-15T06:05:09;20.05;;;12.45;;
71773;SDS011;59607;52.130;5.430;2022-11-15T06:07:35;19.55;;;12.52;;
71773;SDS011;59607;52.130;5.430;2022-11-15T06:10:02;16.23;;;11.13;;
71773;SDS011;59607;52.130;5.430;2022-11-15T06:12:35;18.20;;;11.65;;
71773;SDS011;59607;52.130;5.430;2022-11-15T06:15:01;18.33;;;12.50;;
71773;SDS011;59607;52.130;5.430;2022-11-15T06:17:28;21.70;;;11.77;;
71773;SDS011;59607;52.130;5.430;2022-11-15T06:19:58;18.60;;;13.02;;
71773;SDS011;59607;52.130;5.430;2022-11-15T06:22:24;23.00;;;12.80;;
71773;SDS011;59607;52.130;5.430;2022-11-15T06:24:51;23.30;;;12.43;;
71773;SDS011;59607;52.130;5.430;2022-11-15T06:27:22;21.98;;;12.25;;
71773;SDS011;59607;52.130;5.430;2022-11-15T06:29:49;18.48;;;11.80;;
71773;SDS011;59607;52.130;5.430;2022-11-15T06:32:25;19.83;;;11.57;;
71773;SDS011;59607;52.130;5.430;2022-11-15T06:34:52;16.00;;;12.90;;
71773;SDS011;59607;52.130;5.430;2022-11-15T06:37:22;19.10;;;11.80;;
71773;SDS011;59607;52.130;5.430;2022-11-15T06:39:56;20.25;;;12.73;;
71773;SDS011;59607;52.130;5.430;2022-11-15T06:42:29;20.83;;;13.02;;
71773;SDS011;59607;52.130;5.430;2022-11-15T06:44:55;17.77;;;12.52;;
71773;SDS011;59607;52.130;5.430;2022-11-15T06:47:22;19.10;;;12.13;;
71773;SDS011;59607;52.130;5.430;2022-11-15T06:49:53;19.42;;;11.70;;
71773;SDS011;59607;52.130;5.430;2022-11-15T06:52:20;18.73;;;12.43;;
71773;SDS011;59607;52.130;5.430;2022-11-15T06:54:57;20.27;;;11.93;;
71773;SDS011;59607;52.130;5.430;2022-11-15T06:57:23;18.60;;;11.95;;
71773;SDS011;59607;52.130;5.430;2022-11-15T06:59:50;20.27;;;12.47;;
71773;SDS011;59607;52.130;5.430;2022-11-15T07:02:20;22.17;;;12.30;;
71773;SDS011;59607;52.130;5.430;2022-11-15T07:04:46;18.52;;;12.10;;
71773;SDS011;59607;52.130;5.430;2022-11-15T07:07:13;16.83;;;11.77;;
71773;SDS011;59607;52.130;5.430;2022-11-15T07:09:40;16.63;;;11.60;;
71773;SDS011;59607;52.130;5.430;2022-11-15T07:12:13;17.70;;;11.07;;
71773;SDS011;59607;52.130;5.430;2022-11-15T07:14:56;20.02;;;11.80;;
71773;SDS011;59607;52.130;5.430;2022-11-15T07:17:29;15.60;;;11.40;;
71773;SDS011;59607;52.130;5.430;2022-11-15T07:19:55;21.60;;;12.25;;
71773;SDS011;59607;52.130;5.430;2022-11-15T07:22:21;24.65;;;12.93;;
71773;SDS011;59607;52.130;5.430;2022-11-15T07:24:52;19.07;;;12.30;;
71773;SDS011;59607;52.130;5.430;2022-11-15T07:27:18;22.00;;;11.25;;
71773;SDS011;59607;52.130;5.430;2022-11-15T07:29:45;21.35;;;11.75;;
71773;SDS011;59607;52.130;5.430;2022-11-15T07:32:16;19.52;;;12.27;;
71773;SDS011;59607;52.130;5.430;2022-11-15T07:34:43;14.70;;;11.25;;
71773;SDS011;59607;52.130;5.430;2022-11-15T07:37:15;21.47;;;12.53;;
71773;SDS011;59607;52.130;5.430;2022-11-15T07:39:45;15.40;;;11.93;;
71773;SDS011;59607;52.130;5.430;2022-11-15T07:42:11;19.05;;;12.13;;
71773;SDS011;59607;52.130;5.430;2022-11-15T07:45:03;16.42;;;11.07;;
71773;SDS011;59607;52.130;5.430;2022-11-15T07:47:32;19.52;;;10.85;;
71773;SDS011;59607;52.130;5.430;2022-11-15T07:49:59;15.43;;;10.47;;
71773;SDS011;59607;52.130;5.430;2022-11-15T07:52:26;19.00;;;10.27;;
71773;SDS011;59607;52.130;5.430;2022-11-15T07:54:52;15.77;;;10.60;;
71773;SDS011;59607;52.130;5.430;2022-11-15T07:57:25;15.27;;;9.80;;
71773;SDS011;59607;52.130;5.430;2022-11-15T07:59:56;13.35;;;9.05;;
71773;SDS011;59607;52.130;5.430;2022-11-15T08:02:22;10.80;;;8.43;;
71773;SDS011;59607;52.130;5.430;2022-11-15T08:04:56;18.02;;;9.95;;
71773;SDS011;59607;52.130;5.430;2022-11-15T08:07:23;15.93;;;9.77;;
71773;SDS011;59607;52.130;5.430;2022-11-15T08:09:56;18.50;;;9.75;;
71773;SDS011;59607;52.130;5.430;2022-11-15T08:12:22;14.73;;;9.45;;
71773;SDS011;59607;52.130;5.430;2022-11-15T08:14:52;14.83;;;9.63;;
71773;SDS011;59607;52.130;5.430;2022-11-15T08:17:25;12.98;;;9.68;;
71773;SDS011;59607;52.130;5.430;2022-11-15T08:19:51;11.38;;;8.18;;
71773;SDS011;59607;52.130;5.430;2022-11-15T08:22:24;11.27;;;8.68;;
71773;SDS011;59607;52.130;5.430;2022-11-15T08:24:50;14.00;;;8.82;;
71773;SDS011;59607;52.130;5.430;2022-11-15T08:27:17;12.03;;;8.53;;
71773;SDS011;59607;52.130;5.430;2022-11-15T08:29:52;10.65;;;8.15;;
71773;SDS011;59607;52.130;5.430;2022-11-15T08:32:24;10.98;;;6.88;;
71773;SDS011;59607;52.130;5.430;2022-11-15T08:34:54;12.65;;;7.50;;
71773;SDS011;59607;52.130;5.430;2022-11-15T08:37:21;14.85;;;8.88;;
71773;SDS011;59607;52.130;5.430;2022-11-15T08:39:53;11.17;;;8.23;;
71773;SDS011;59607;52.130;5.430;2022-11-15T08:42:19;12.88;;;8.20;;
71773;SDS011;59607;52.130;5.430;2022-11-15T08:44:50;11.80;;;8.85;;
71773;SDS011;59607;52.130;5.430;2022-11-15T08:47:20;15.55;;;8.23;;
71773;SDS011;59607;52.130;5.430;2022-11-15T08:49:46;12.68;;;7.07;;
71773;SDS011;59607;52.130;5.430;2022-11-15T08:52:26;11.10;;;8.40;;
71773;SDS011;59607;52.130;5.430;2022-11-15T08:54:55;13.13;;;8.15;;
71773;SDS011;59607;52.130;5.430;2022-11-15T08:57:21;16.10;;;7.95;;
71773;SDS011;59607;52.130;5.430;2022-11-15T08:59:47;16.17;;;8.30;;
71773;SDS011;59607;52.130;5.430;2022-11-15T09:02:16;8.68;;;7.75;;
71773;SDS011;59607;52.130;5.430;2022-11-15T09:04:52;12.57;;;8.03;;
71773;SDS011;59607;52.130;5.430;2022-11-15T09:07:27;9.10;;;7.85;;
71773;SDS011;59607;52.130;5.430;2022-11-15T09:09:55;10.43;;;7.32;;
71773;SDS011;59607;52.130;5.430;2022-11-15T09:12:25;10.95;;;7.40;;
71773;SDS011;59607;52.130;5.430;2022-11-15T09:14:54;14.85;;;7.57;;
71773;SDS011;59607;52.130;5.430;2022-11-15T09:17:21;11.43;;;7.57;;
71773;SDS011;59607;52.130;5.430;2022-11-15T09:20:01;10.02;;;6.88;;
71773;SDS011;59607;52.130;5.430;2022-11-15T09:22:42;10.88;;;7.95;;
71773;SDS011;59607;52.130;5.430;2022-11-15T09:25:12;7.43;;;6.30;;
71773;SDS011;59607;52.130;5.430;2022-11-15T09:27:41;9.13;;;7.35;;
71773;SDS011;59607;52.130;5.430;2022-11-15T09:30:07;8.03;;;6.50;;
71773;SDS011;59607;52.130;5.430;2022-11-15T09:32:40;12.50;;;7.05;;
71773;SDS011;59607;52.130;5.430;2022-11-15T09:35:07;6.75;;;5.88;;
71773;SDS011;59607;52.130;5.430;2022-11-15T09:37:34;6.43;;;5.93;;
71773;SDS011;59607;52.130;5.430;2022-11-15T09:40:07;6.63;;;5.43;;
71773;SDS011;59607;52.130;5.430;2022-11-15T09:45:34;5.53;;;4.53;;
71773;SDS011;59607;52.130;5.430;2022-11-15T09:51:06;5.95;;;4.60;;
71773;SDS011;59607;52.130;5.430;2022-11-15T09:57:15;6.27;;;3.97;;
71773;SDS011;59607;52.130;5.430;2022-11-15T09:59:47;5.53;;;4.88;;
71773;SDS011;59607;52.130;5.430;2022-11-15T10:05:38;4.75;;;3.97;;
71773;SDS011;59607;52.130;5.430;2022-11-15T10:11:11;7.07;;;4.03;;
71773;SDS011;59607;52.130;5.430;2022-11-15T10:14:24;7.53;;;4.13;;
71773;SDS011;59607;52.130;5.430;2022-11-15T10:20:12;6.28;;;3.55;;
71773;SDS011;59607;52.130;5.430;2022-11-15T10:22:54;3.80;;;3.50;;
71773;SDS011;59607;52.130;5.430;2022-11-15T10:25:30;5.23;;;3.10;;
71773;SDS011;59607;52.130;5.430;2022-11-15T10:30:44;3.50;;;2.42;;
71773;SDS011;59607;52.130;5.430;2022-11-15T10:38:51;5.23;;;2.23;;
71773;SDS011;59607;52.130;5.430;2022-11-15T10:46:36;3.33;;;1.95;;
71773;SDS011;59607;52.130;5.430;2022-11-15T10:49:21;4.22;;;1.65;;
71773;SDS011;59607;52.130;5.430;2022-11-15T10:52:02;3.50;;;1.50;;
71773;SDS011;59607;52.130;5.430;2022-11-15T10:54:49;3.00;;;1.63;;
71773;SDS011;59607;52.130;5.430;2022-11-15T10:57:22;2.35;;;1.40;;
71773;SDS011;59607;52.130;5.430;2022-11-15T10:59:56;5.03;;;1.63;;
71773;SDS011;59607;52.130;5.430;2022-11-15T11:02:40;2.15;;;1.60;;
71773;SDS011;59607;52.130;5.430;2022-11-15T11:05:27;4.90;;;1.30;;
71773;SDS011;59607;52.130;5.430;2022-11-15T11:13:38;2.15;;;1.08;;
71773;SDS011;59607;52.130;5.430;2022-11-15T11:16:16;2.65;;;1.45;;
71773;SDS011;59607;52.130;5.430;2022-11-15T11:19:02;2.47;;;1.07;;
71773;SDS011;59607;52.130;5.430;2022-11-15T11:49:01;3.37;;;1.07;;
71773;SDS011;59607;52.130;5.430;2022-11-15T12:00:35;3.22;;;1.00;;
71773;SDS011;59607;52.130;5.430;2022-11-15T12:05:48;1.85;;;0.75;;
71773;SDS011;59607;52.130;5.430;2022-11-15T12:11:35;2.80;;;0.60;;
71773;SDS011;59607;52.130;5.430;2022-11-15T12:17:03;1.07;;;0.40;;
71773;SDS011;59607;52.130;5.430;2022-11-15T12:19:33;4.50;;;0.50;;
71773;SDS011;59607;52.130;5.430;2022-11-15T12:22:10;2.25;;;0.50;;
71773;SDS011;59607;52.130;5.430;2022-11-15T12:25:17;1.50;;;0.30;;
71773;SDS011;59607;52.130;5.430;2022-11-15T12:28:01;2.47;;;0.40;;
71773;SDS011;59607;52.130;5.430;2022-11-15T12:36:46;2.15;;;0.47;;
71773;SDS011;59607;52.130;5.430;2022-11-15T12:39:19;1.58;;;0.30;;
71773;SDS011;59607;52.130;5.430;2022-11-15T12:47:45;4.40;;;0.50;;
71773;SDS011;59607;52.130;5.430;2022-11-15T12:49:52;2.00;;;0.88;;
71773;SDS011;59607;52.130;5.430;2022-11-15T12:52:21;2.60;;;0.50;;
71773;SDS011;59607;52.130;5.430;2022-11-15T12:54:54;1.50;;;0.30;;
71773;SDS011;59607;52.130;5.430;2022-11-15T12:57:37;3.30;;;0.40;;
71773;SDS011;59607;52.130;5.430;2022-11-15T13:00:36;2.30;;;0.40;;
71773;SDS011;59607;52.130;5.430;2022-11-15T13:22:40;2.83;;;0.85;;
71773;SDS011;59607;52.130;5.430;2022-11-15T13:30:36;3.33;;;0.57;;
71773;SDS011;59607;52.130;5.430;2022-11-15T13:33:37;2.13;;;0.43;;
71773;SDS011;59607;52.130;5.430;2022-11-15T13:36:19;3.03;;;0.70;;
71773;SDS011;59607;52.130;5.430;2022-11-15T13:39:03;3.47;;;0.70;;
71773;SDS011;59607;52.130;5.430;2022-11-15T13:41:52;1.85;;;0.63;;
71773;SDS011;59607;52.130;5.430;2022-11-15T13:44:37;1.35;;;0.50;;
71773;SDS011;59607;52.130;5.430;2022-11-15T13:47:15;3.15;;;0.70;;
71773;SDS011;59607;52.130;5.430;2022-11-15T13:49:45;2.70;;;0.57;;
71773;SDS011;59607;52.130;5.430;2022-11-15T13:52:13;2.80;;;0.57;;
71773;SDS011;59607;52.130;5.430;2022-11-15T13:54:45;1.27;;;0.50;;
71773;SDS011;59607;52.130;5.430;2022-11-15T13:57:24;3.42;;;0.50;;
71773;SDS011;59607;52.130;5.430;2022-11-15T14:00:04;3.53;;;0.50;;
71773;SDS011;59607;52.130;5.430;2022-11-15T14:02:38;2.95;;;0.63;;
71773;SDS011;59607;52.130;5.430;2022-11-15T14:05:12;5.17;;;1.00;;
71773;SDS011;59607;52.130;5.430;2022-11-15T14:08:11;4.40;;;0.50;;
71773;SDS011;59607;52.130;5.430;2022-11-15T14:11:09;3.65;;;0.57;;
71773;SDS011;59607;52.130;5.430;2022-11-15T14:14:27;2.50;;;0.40;;
71773;SDS011;59607;52.130;5.430;2022-11-15T14:16:54;1.67;;;0.68;;
71773;SDS011;59607;52.130;5.430;2022-11-15T14:30:48;1.85;;;0.50;;
71773;SDS011;59607;52.130;5.430;2022-11-15T14:33:29;2.80;;;0.40;;
71773;SDS011;59607;52.130;5.430;2022-11-15T14:36:10;4.65;;;0.63;;
71773;SDS011;59607;52.130;5.430;2022-11-15T14:38:43;4.18;;;0.60;;
71773;SDS011;59607;52.130;5.430;2022-11-15T14:41:11;3.22;;;0.50;;
71773;SDS011;59607;52.130;5.430;2022-11-15T14:43:50;2.05;;;0.30;;
71773;SDS011;59607;52.130;5.430;2022-11-15T14:46:18;2.97;;;0.40;;
71773;SDS011;59607;52.130;5.430;2022-11-15T14:48:48;2.05;;;0.47;;
71773;SDS011;59607;52.130;5.430;2022-11-15T14:51:32;4.13;;;0.40;;
71773;SDS011;59607;52.130;5.430;2022-11-15T14:53:59;1.40;;;0.43;;
71773;SDS011;59607;52.130;5.430;2022-11-15T14:56:33;1.20;;;0.40;;
71773;SDS011;59607;52.130;5.430;2022-11-15T14:58:59;2.60;;;0.43;;
71773;SDS011;59607;52.130;5.430;2022-11-15T15:01:26;1.67;;;0.52;;
71773;SDS011;59607;52.130;5.430;2022-11-15T15:03:55;5.18;;;0.30;;
71773;SDS011;59607;52.130;5.430;2022-11-15T15:06:23;1.20;;;0.30;;
71773;SDS011;59607;52.130;5.430;2022-11-15T15:08:53;1.95;;;0.45;;
71773;SDS011;59607;52.130;5.430;2022-11-15T15:11:23;2.13;;;0.40;;
71773;SDS011;59607;52.130;5.430;2022-11-15T15:13:56;1.48;;;0.50;;
71773;SDS011;59607;52.130;5.430;2022-11-15T15:16:27;3.25;;;0.40;;
71773;SDS011;59607;52.130;5.430;2022-11-15T15:18:56;2.72;;;0.52;;
71773;SDS011;59607;52.130;5.430;2022-11-15T15:21:26;3.50;;;0.30;;
71773;SDS011;59607;52.130;5.430;2022-11-15T15:24:02;4.30;;;0.40;;
71773;SDS011;59607;52.130;5.430;2022-11-15T15:26:31;3.03;;;0.60;;
71773;SDS011;59607;52.130;5.430;2022-11-15T15:29:04;1.45;;;0.22;;
71773;SDS011;59607;52.130;5.430;2022-11-15T15:31:35;1.60;;;0.30;;
71773;SDS011;59607;52.130;5.430;2022-11-15T15:34:01;2.42;;;0.40;;
71773;SDS011;59607;52.130;5.430;2022-11-15T15:40:38;1.20;;;0.30;;
71773;SDS011;59607;52.130;5.430;2022-11-15T15:46:51;3.78;;;0.30;;
71773;SDS011;59607;52.130;5.430;2022-11-15T15:53:05;1.23;;;0.47;;
71773;SDS011;59607;52.130;5.430;2022-11-15T15:59:12;2.05;;;0.30;;
71773;SDS011;59607;52.130;5.430;2022-11-15T16:09:19;1.30;;;0.57;;
71773;SDS011;59607;52.130;5.430;2022-11-15T16:16:21;1.40;;;0.40;;
71773;SDS011;59607;52.130;5.430;2022-11-15T16:26:01;3.63;;;0.43;;
71773;SDS011;59607;52.130;5.430;2022-11-15T16:32:16;3.28;;;0.40;;
71773;SDS011;59607;52.130;5.430;2022-11-15T16:38:30;1.65;;;0.40;;
71773;SDS011;59607;52.130;5.430;2022-11-15T16:40:57;1.83;;;0.50;;
71773;SDS011;59607;52.130;5.430;2022-11-15T16:43:33;2.60;;;0.80;;
71773;SDS011;59607;52.130;5.430;2022-11-15T16:46:02;3.47;;;0.47;;
71773;SDS011;59607;52.130;5.430;2022-11-15T16:53:15;1.42;;;0.40;;
71773;SDS011;59607;52.130;5.430;2022-11-15T17:02:39;4.40;;;0.55;;
71773;SDS011;59607;52.130;5.430;2022-11-15T17:08:46;1.42;;;0.40;;
71773;SDS011;59607;52.130;5.430;2022-11-15T17:15:00;1.77;;;0.50;;
71773;SDS011;59607;52.130;5.430;2022-11-15T17:32:37;3.00;;;0.80;;
71773;SDS011;59607;52.130;5.430;2022-11-15T17:41:51;2.88;;;1.10;;
71773;SDS011;59607;52.130;5.430;2022-11-15T17:48:07;2.75;;;1.30;;
71773;SDS011;59607;52.130;5.430;2022-11-15T17:54:21;4.88;;;1.05;;
71773;SDS011;59607;52.130;5.430;2022-11-15T17:56:53;2.05;;;1.10;;
71773;SDS011;59607;52.130;5.430;2022-11-15T18:13:52;2.67;;;0.82;;
71773;SDS011;59607;52.130;5.430;2022-11-15T18:21:18;2.35;;;1.25;;
71773;SDS011;59607;52.130;5.430;2022-11-15T18:27:41;3.50;;;1.02;;
71773;SDS011;59607;52.130;5.430;2022-11-15T18:30:11;3.35;;;1.23;;
71773;SDS011;59607;52.130;5.430;2022-11-15T18:36:19;2.05;;;1.40;;
71773;SDS011;59607;52.130;5.430;2022-11-15T18:45:48;3.88;;;1.48;;
71773;SDS011;59607;52.130;5.430;2022-11-15T18:51:57;3.38;;;1.80;;
71773;SDS011;59607;52.130;5.430;2022-11-15T18:58:11;6.03;;;1.70;;
71773;SDS011;59607;52.130;5.430;2022-11-15T19:00:45;4.30;;;2.03;;
71773;SDS011;59607;52.130;5.430;2022-11-15T19:14:00;3.45;;;1.80;;
71773;SDS011;59607;52.130;5.430;2022-11-15T19:20:28;4.00;;;2.13;;
71773;SDS011;59607;52.130;5.430;2022-11-15T19:22:57;3.70;;;2.58;;
71773;SDS011;59607;52.130;5.430;2022-11-15T19:29:03;3.55;;;2.45;;
71773;SDS011;59607;52.130;5.430;2022-11-15T19:31:33;3.67;;;2.70;;
71773;SDS011;59607;52.130;5.430;2022-11-15T19:41:44;3.92;;;2.58;;
71773;SDS011;59607;52.130;5.430;2022-11-15T19:44:12;4.88;;;2.65;;
71773;SDS011;59607;52.130;5.430;2022-11-15T19:46:41;3.72;;;2.80;;
71773;SDS011;59607;52.130;5.430;2022-11-15T19:52:53;2.80;;;2.40;;
71773;SDS011;59607;52.130;5.430;2022-11-15T19:55:21;5.88;;;2.85;;
71773;SDS011;59607;52.130;5.430;2022-11-15T19:57:52;3.38;;;2.63;;
71773;SDS011;59607;52.130;5.430;2022-11-15T20:03:59;4.23;;;2.80;;
71773;SDS011;59607;52.130;5.430;2022-11-15T20:09:23;4.72;;;3.40;;
71773;SDS011;59607;52.130;5.430;2022-11-15T20:15:45;3.42;;;3.10;;
71773;SDS011;59607;52.130;5.430;2022-11-15T20:22:01;5.18;;;3.33;;
71773;SDS011;59607;52.130;5.430;2022-11-15T20:35:01;5.20;;;3.57;;
71773;SDS011;59607;52.130;5.430;2022-11-15T20:40:51;4.43;;;4.03;;
71773;SDS011;59607;52.130;5.430;2022-11-15T20:47:12;4.30;;;3.90;;
71773;SDS011;59607;52.130;5.430;2022-11-15T20:53:26;6.57;;;3.75;;
71773;SDS011;59607;52.130;5.430;2022-11-15T20:59:41;4.82;;;4.15;;
71773;SDS011;59607;52.130;5.430;2022-11-15T21:06:03;4.53;;;3.57;;
71773;SDS011;59607;52.130;5.430;2022-11-15T21:22:32;5.03;;;4.53;;
71773;SDS011;59607;52.130;5.430;2022-11-15T21:24:59;5.28;;;4.88;;
71773;SDS011;59607;52.130;5.430;2022-11-15T21:31:12;5.40;;;4.90;;
71773;SDS011;59607;52.130;5.430;2022-11-15T21:41:22;5.00;;;4.55;;